createdAt,value
2023-05-14T00:00:15.354Z,101533.75
2023-05-14T00:04:19.597Z,101531.22
2023-05-14T00:08:22.350Z,101538.53
2023-05-14T00:12:26.299Z,101523.34
2023-05-14T00:16:30.441Z,101524.94
2023-05-14T00:20:33.227Z,101527.59
2023-05-14T00:24:36.189Z,101527.25
2023-05-14T00:28:38.857Z,101523.81
2023-05-14T00:32:43.180Z,101529.19
2023-05-14T00:36:45.990Z,101524.19
2023-05-14T00:40:51.794Z,101520.50
2023-05-14T00:44:54.630Z,101521.28
2023-05-14T00:49:02.625Z,101510.44
2023-05-14T00:53:10.094Z,101503.47
2023-05-14T00:57:13.185Z,101509.81
2023-05-14T01:01:16.654Z,101503.41
2023-05-14T01:05:25.234Z,101506.66
2023-05-14T01:09:37.262Z,101507.47
2023-05-14T01:13:49.827Z,101506.28
2023-05-14T01:17:55.971Z,101504.88
2023-05-14T01:22:00.076Z,101504.69
2023-05-14T01:26:02.822Z,101508.50
2023-05-14T01:30:22.496Z,101500.94
2023-05-14T01:34:29.418Z,101498.44
2023-05-14T01:38:35.286Z,101504.91
2023-05-14T01:42:39.195Z,101496.84
2023-05-14T01:46:42.448Z,101491.50
2023-05-14T01:50:45.188Z,101493.31
2023-05-14T01:54:49.622Z,101493.69
2023-05-14T01:58:52.413Z,101490.09
2023-05-14T02:02:55.481Z,101484.88
2023-05-14T02:06:59.389Z,101480.03
2023-05-14T02:11:03.493Z,101480.25
2023-05-14T02:15:08.876Z,101478.25
2023-05-14T02:19:12.226Z,101470.28
2023-05-14T02:23:15.000Z,101466.97
2023-05-14T02:27:21.404Z,101463.91
2023-05-14T02:31:24.154Z,101456.41
2023-05-14T02:35:28.198Z,101453.13
2023-05-14T02:39:30.971Z,101449.78
2023-05-14T02:43:35.167Z,101440.41
2023-05-14T02:47:38.320Z,101447.16
2023-05-14T02:51:41.513Z,101447.41
2023-05-14T02:55:44.233Z,101448.75
2023-05-14T02:59:48.292Z,101452.19
2023-05-14T03:03:51.573Z,101448.88
2023-05-14T03:07:55.358Z,101443.06
2023-05-14T03:11:58.535Z,101450.28
2023-05-14T03:16:02.555Z,101442.31
2023-05-14T03:20:05.884Z,101445.66
2023-05-14T03:24:08.694Z,101442.31
2023-05-14T03:28:11.457Z,101444.47
2023-05-14T03:32:15.955Z,101441.97
2023-05-14T03:36:18.741Z,101447.91
2023-05-14T03:40:23.026Z,101443.53
2023-05-14T03:44:26.215Z,101441.53
2023-05-14T03:48:30.807Z,101433.34
2023-05-14T03:52:33.726Z,101441.16
2023-05-14T03:56:38.577Z,101436.78
2023-05-14T04:00:42.030Z,101426.94
2023-05-14T04:04:48.026Z,101421.72
2023-05-14T04:08:54.409Z,101427.88
2023-05-14T04:12:57.175Z,101420.38
2023-05-14T04:17:04.000Z,101426.34
2023-05-14T04:21:08.396Z,101426.34
2023-05-14T04:25:11.260Z,101436.88
2023-05-14T04:29:13.985Z,101433.44
2023-05-14T04:33:17.553Z,101425.97
2023-05-14T04:37:21.639Z,101436.78
2023-05-14T04:41:24.342Z,101440.56
2023-05-14T04:45:27.546Z,101430.00
2023-05-14T04:49:30.869Z,101424.66
2023-05-14T04:53:34.955Z,101431.91
2023-05-14T04:57:37.695Z,101424.78
2023-05-14T05:01:40.671Z,101424.09
2023-05-14T05:05:43.474Z,101421.22
2023-05-14T05:09:47.611Z,101430.38
2023-05-14T05:13:51.480Z,101422.41
2023-05-14T05:17:54.367Z,101427.16
2023-05-14T05:21:57.224Z,101425.50
2023-05-14T05:26:01.549Z,101424.06
2023-05-14T05:30:04.877Z,101418.41
2023-05-14T05:34:07.661Z,101421.47
2023-05-14T05:38:10.596Z,101427.88
2023-05-14T05:42:14.769Z,101432.63
2023-05-14T05:46:17.537Z,101441.63
2023-05-14T05:50:20.739Z,101440.31
2023-05-14T05:54:24.380Z,101444.69
2023-05-14T05:58:28.453Z,101438.75
2023-05-14T06:02:31.251Z,101439.91
2023-05-14T06:06:34.152Z,101444.13
2023-05-14T06:10:37.525Z,101442.19
2023-05-14T06:14:41.725Z,101441.38
2023-05-14T06:18:44.427Z,101448.97
2023-05-14T06:22:47.287Z,101451.53
2023-05-14T06:26:50.035Z,101452.56
2023-05-14T06:30:54.616Z,101453.88
2023-05-14T06:34:57.391Z,101454.78
2023-05-14T06:39:00.122Z,101450.97
2023-05-14T06:43:02.873Z,101452.47
2023-05-14T06:47:08.502Z,101449.50
2023-05-14T06:51:13.128Z,101442.19
2023-05-14T06:55:15.822Z,101439.75
2023-05-14T06:59:18.679Z,101435.63
2023-05-14T07:03:23.036Z,101442.00
2023-05-14T07:07:25.810Z,101442.84
2023-05-14T07:11:28.695Z,101437.22
2023-05-14T07:15:31.645Z,101425.28
2023-05-14T07:19:35.772Z,101429.22
2023-05-14T07:23:38.709Z,101432.31
2023-05-14T07:27:41.428Z,101432.31
2023-05-14T07:31:44.207Z,101423.97
2023-05-14T07:35:48.429Z,101416.97
2023-05-14T07:39:51.185Z,101413.56
2023-05-14T07:43:53.922Z,101412.66
2023-05-14T07:47:57.916Z,101418.16
2023-05-14T07:52:02.731Z,101417.91
2023-05-14T07:56:06.215Z,101419.63
2023-05-14T08:00:11.619Z,101411.25
2023-05-14T08:04:18.292Z,101420.22
2023-05-14T08:08:23.101Z,101415.19
2023-05-14T08:12:26.822Z,101421.38
2023-05-14T08:16:30.391Z,101416.31
2023-05-14T08:20:33.294Z,101407.53
2023-05-14T08:24:37.391Z,101410.25
2023-05-14T08:28:47.791Z,101405.44
2023-05-14T08:32:50.899Z,101410.78
2023-05-14T08:36:54.150Z,101405.84
2023-05-14T08:40:59.860Z,101402.44
2023-05-14T08:45:06.746Z,101405.03
2023-05-14T08:49:18.953Z,101403.59
2023-05-14T08:53:21.934Z,101394.16
2023-05-14T08:57:27.705Z,101388.66
2023-05-14T09:01:30.825Z,101390.22
2023-05-14T09:05:36.628Z,101385.97
2023-05-14T09:09:40.381Z,101392.69
2023-05-14T09:13:47.781Z,101394.13
2023-05-14T09:17:50.861Z,101389.84
2023-05-14T09:21:58.684Z,101379.66
2023-05-14T09:26:06.109Z,101388.69
2023-05-14T09:30:12.608Z,101381.31
2023-05-14T09:34:25.007Z,101378.72
2023-05-14T09:38:31.029Z,101372.31
2023-05-14T09:42:33.916Z,101373.28
2023-05-14T09:46:39.345Z,101362.59
2023-05-14T09:50:43.415Z,101354.34
2023-05-14T09:54:47.788Z,101351.50
2023-05-14T09:58:50.856Z,101349.72
2023-05-14T10:02:56.099Z,101341.16
2023-05-14T10:06:58.957Z,101344.06
2023-05-14T10:11:05.867Z,101337.75
2023-05-14T10:15:18.653Z,101328.94
2023-05-14T10:19:26.165Z,101330.75
2023-05-14T10:23:29.899Z,101327.66
2023-05-14T10:27:33.583Z,101326.09
2023-05-14T10:31:51.569Z,101322.06
2023-05-14T10:36:02.092Z,101319.28
2023-05-14T10:40:06.529Z,101324.69
2023-05-14T10:44:21.434Z,101316.34
2023-05-14T10:48:26.537Z,101312.81
2023-05-14T10:52:30.636Z,101314.09
2023-05-14T10:56:34.419Z,101305.59
2023-05-14T11:00:40.214Z,101307.47
2023-05-14T11:04:43.085Z,101297.91
2023-05-14T11:08:46.547Z,101302.38
2023-05-14T11:12:50.887Z,101290.69
2023-05-14T11:16:55.644Z,101294.00
2023-05-14T11:21:01.873Z,101292.47
2023-05-14T11:25:05.101Z,101285.88
2023-05-14T11:29:07.794Z,101281.44
2023-05-14T11:33:12.011Z,101280.28
2023-05-14T11:37:16.806Z,101266.56
2023-05-14T11:41:21.295Z,101266.81
2023-05-14T11:45:27.436Z,101260.56
2023-05-14T11:49:32.390Z,101257.00
2023-05-14T11:53:35.677Z,101257.97
2023-05-14T11:57:38.495Z,101256.31
2023-05-14T12:01:41.361Z,101250.81
2023-05-14T12:05:57.891Z,101242.47
2023-05-14T12:10:03.116Z,101243.66
2023-05-14T12:14:12.249Z,101241.13
2023-05-14T12:18:24.248Z,101238.38
2023-05-14T12:22:30.877Z,101238.34
2023-05-14T12:26:34.483Z,101233.16
2023-05-14T12:30:39.137Z,101228.81
2023-05-14T12:34:41.911Z,101223.47
2023-05-14T12:38:46.077Z,101222.47
2023-05-14T12:42:48.814Z,101216.75
2023-05-14T12:46:51.595Z,101212.84
2023-05-14T12:50:54.376Z,101215.47
2023-05-14T12:54:58.448Z,101217.97
2023-05-14T12:59:01.121Z,101207.66
2023-05-14T13:03:03.865Z,101205.56
2023-05-14T13:07:08.812Z,101201.66
2023-05-14T13:11:12.976Z,101199.31
2023-05-14T13:15:16.268Z,101192.81
2023-05-14T13:19:19.039Z,101182.63
2023-05-14T13:23:21.713Z,101191.97
2023-05-14T13:27:26.450Z,101189.16
2023-05-14T13:31:29.241Z,101187.69
2023-05-14T13:35:31.987Z,101186.41
2023-05-14T13:39:34.748Z,101173.66
2023-05-14T13:43:38.968Z,101170.72
2023-05-14T13:47:41.693Z,101162.53
2023-05-14T13:51:44.470Z,101171.50
2023-05-14T13:55:49.045Z,101157.75
2023-05-14T13:59:53.454Z,101165.63
2023-05-14T14:03:56.192Z,101162.84
2023-05-14T14:08:04.366Z,101157.06
2023-05-14T14:12:15.904Z,101145.75
2023-05-14T14:16:20.114Z,101147.38
2023-05-14T14:20:22.812Z,101147.06
2023-05-14T14:24:26.520Z,101143.59
2023-05-14T14:28:29.504Z,101141.63
2023-05-14T14:32:34.502Z,101139.22
2023-05-14T14:36:37.629Z,101131.97
2023-05-14T14:40:40.358Z,101133.25
2023-05-14T14:44:43.306Z,101129.44
2023-05-14T14:48:47.824Z,101131.16
2023-05-14T14:52:51.459Z,101126.66
2023-05-14T14:56:54.646Z,101128.06
2023-05-14T15:00:59.269Z,101122.06
2023-05-14T15:05:03.597Z,101118.13
2023-05-14T15:09:07.701Z,101125.31
2023-05-14T15:13:12.014Z,101121.84
2023-05-14T15:17:14.925Z,101122.84
2023-05-14T15:21:19.039Z,101117.50
2023-05-14T15:25:22.701Z,101113.59
2023-05-14T15:29:25.601Z,101116.69
2023-05-14T15:33:28.391Z,101112.38
2023-05-14T15:37:37.996Z,101111.53
2023-05-14T15:41:40.779Z,101101.53
2023-05-14T15:45:45.592Z,101100.78
2023-05-14T15:49:48.681Z,101096.28
2023-05-14T15:53:58.722Z,101091.38
2023-05-14T15:58:02.196Z,101093.34
2023-05-14T16:02:06.140Z,101097.63
2023-05-14T16:06:09.141Z,101094.84
2023-05-14T16:10:13.558Z,101089.25
2023-05-14T16:14:16.298Z,101087.56
2023-05-14T16:18:19.113Z,101088.84
2023-05-14T16:22:21.884Z,101087.69
2023-05-14T16:26:26.375Z,101090.50
2023-05-14T16:30:29.150Z,101089.88
2023-05-14T16:34:32.243Z,101085.25
2023-05-14T16:38:38.561Z,101087.47
2023-05-14T16:42:47.745Z,101076.84
2023-05-14T16:46:52.081Z,101079.09
2023-05-14T16:50:56.058Z,101080.59
2023-05-14T16:54:58.846Z,101081.38
2023-05-14T16:59:02.835Z,101080.91
2023-05-14T17:03:06.680Z,101087.38
2023-05-14T17:07:09.542Z,101083.06
2023-05-14T17:11:12.294Z,101077.25
2023-05-14T17:15:16.581Z,101075.69
2023-05-14T17:19:19.334Z,101075.81
2023-05-14T17:23:22.119Z,101085.72
2023-05-14T17:27:25.212Z,101069.09
2023-05-14T17:31:29.447Z,101075.28
2023-05-14T17:35:35.725Z,101085.16
2023-05-14T17:39:38.579Z,101081.06
2023-05-14T17:43:41.260Z,101083.94
2023-05-14T17:47:45.435Z,101081.00
2023-05-14T17:51:48.154Z,101080.53
2023-05-14T17:55:51.668Z,101078.97
2023-05-14T17:59:54.863Z,101087.47
2023-05-14T18:03:59.475Z,101092.09
2023-05-14T18:08:02.475Z,101092.09
2023-05-14T18:12:05.980Z,101092.50
2023-05-14T18:16:09.025Z,101091.34
2023-05-14T18:20:14.201Z,101092.66
2023-05-14T18:24:19.648Z,101094.81
2023-05-14T18:28:23.410Z,101091.63
2023-05-14T18:32:27.296Z,101095.91
2023-05-14T18:36:32.607Z,101087.28
2023-05-14T18:40:36.839Z,101085.47
2023-05-14T18:44:44.121Z,101086.78
2023-05-14T18:48:48.527Z,101091.03
2023-05-14T18:52:55.948Z,101085.03
2023-05-14T18:57:01.188Z,101089.03
2023-05-14T19:01:04.379Z,101083.34
2023-05-14T19:05:12.379Z,101077.16
2023-05-14T19:09:21.350Z,101093.88
2023-05-14T19:13:25.076Z,101094.31
2023-05-14T19:17:32.959Z,101088.16
2023-05-14T19:21:36.223Z,101093.56
2023-05-14T19:25:41.385Z,101090.97
2023-05-14T19:29:45.294Z,101089.47
2023-05-14T19:33:50.399Z,101094.06
2023-05-14T19:37:56.291Z,101096.69
2023-05-14T20:19:04.214Z,101109.84
2023-05-14T20:23:07.551Z,101107.66
2023-05-14T20:27:13.259Z,101106.00
2023-05-14T20:31:16.400Z,101098.59
2023-05-14T20:35:21.898Z,101100.81
2023-05-14T20:39:25.436Z,101097.25
2023-05-14T20:43:28.821Z,101097.84
2023-05-14T20:47:34.070Z,101099.25
2023-05-14T20:51:38.734Z,101096.22
2023-05-14T20:55:42.210Z,101094.31
2023-05-14T20:59:45.007Z,101093.19
2023-05-14T21:03:47.990Z,101092.38
2023-05-14T21:07:52.386Z,101091.03
2023-05-14T21:11:55.560Z,101087.53
2023-05-14T21:16:00.159Z,101085.31
2023-05-14T21:20:03.266Z,101082.56
2023-05-14T21:24:08.073Z,101084.78
2023-05-14T21:28:10.776Z,101097.16
2023-05-14T21:32:13.552Z,101091.69
2023-05-14T21:36:16.339Z,101099.97
2023-05-14T21:40:20.646Z,101082.09
2023-05-14T21:44:26.533Z,101085.69
2023-05-14T21:48:29.531Z,101082.69
2023-05-14T21:52:35.301Z,101082.72
2023-05-14T21:56:39.759Z,101076.66
2023-05-14T22:00:42.533Z,101068.69
2023-05-14T22:04:45.488Z,101068.44
2023-05-14T22:08:48.361Z,101063.19
2023-05-14T22:12:52.501Z,101062.66
2023-05-14T22:16:55.461Z,101064.31
2023-05-14T22:20:58.358Z,101067.59
2023-05-14T22:25:01.070Z,101062.91
2023-05-14T22:29:05.246Z,101060.16
2023-05-14T22:33:08.305Z,101059.84
2023-05-14T22:37:11.615Z,101063.13
2023-05-14T22:41:14.318Z,101060.38
2023-05-14T22:45:18.651Z,101052.91
2023-05-14T22:49:23.451Z,101059.19
2023-05-14T22:53:26.377Z,101052.81
2023-05-14T22:57:29.158Z,101064.03
2023-05-14T23:01:33.292Z,101060.13
2023-05-14T23:05:36.197Z,101059.03
2023-05-14T23:09:38.923Z,101054.63
2023-05-14T23:13:42.039Z,101041.34
2023-05-14T23:17:46.234Z,101053.94
2023-05-14T23:21:49.352Z,101053.66
2023-05-14T23:25:52.647Z,101039.41
2023-05-14T23:29:55.468Z,101042.41
2023-05-14T23:33:59.519Z,101045.97
2023-05-14T23:38:02.293Z,101035.84
2023-05-14T23:42:05.084Z,101030.09
2023-05-14T23:46:08.714Z,101021.28
2023-05-14T23:50:12.966Z,101020.38
2023-05-14T23:54:17.239Z,101021.94
2023-05-14T23:58:20.105Z,101014.38
